Time;durP1;ratioP1;P1;durP2;ratioP2;P2;SDS_P1;SDS_P2;PMS_P1;PMS_P2;Temp;Humidity;BMP_temperature;BMP_pressure;BME280_temperature;BME280_humidity;BME280_pressure;Samples;Min_cycle;Max_cycle;Signal;HPM_P1;HPM_P2
2022/10/16 00:01:08;;;;;;;3.10;1.23;;;12.80;99.90;;;;;;5035796;28;20055;-66
2022/10/16 00:03:33;;;;;;;2.40;1.30;;;12.80;99.90;;;;;;5110523;27;20073;-65
2022/10/16 00:06:00;;;;;;;4.63;1.40;;;12.80;99.90;;;;;;5089382;28;20059;-65
2022/10/16 00:08:27;;;;;;;6.20;2.15;;;12.70;99.90;;;;;;5085254;28;20583;-65
2022/10/16 00:10:52;;;;;;;5.38;1.52;;;12.70;99.90;;;;;;5089640;28;20038;-65
2022/10/16 00:13:20;;;;;;;8.20;1.80;;;12.70;99.90;;;;;;5086272;28;20036;-67
2022/10/16 00:15:46;;;;;;;3.97;1.38;;;12.70;99.90;;;;;;5089485;28;20032;-64
2022/10/16 00:18:12;;;;;;;7.00;1.50;;;12.70;99.90;;;;;;5094887;28;20055;-66
2022/10/16 00:20:38;;;;;;;6.22;1.50;;;12.70;99.90;;;;;;5087309;28;20043;-66
2022/10/16 00:23:04;;;;;;;7.28;1.58;;;12.70;99.90;;;;;;5087603;28;20048;-66
2022/10/16 00:25:32;;;;;;;3.47;1.10;;;12.70;99.90;;;;;;5085856;28;20044;-66
2022/10/16 00:27:59;;;;;;;7.22;1.70;;;12.70;99.90;;;;;;5087933;28;20115;-65
2022/10/16 00:30:27;;;;;;;7.00;1.88;;;12.70;99.90;;;;;;5091995;28;20044;-66
2022/10/16 00:32:53;;;;;;;6.15;1.38;;;12.70;99.90;;;;;;5084257;28;20093;-66
2022/10/16 00:35:18;;;;;;;3.65;1.38;;;12.70;99.90;;;;;;5087463;28;20444;-67
2022/10/16 00:37:44;;;;;;;7.30;1.63;;;12.70;99.90;;;;;;5084964;28;20131;-66
2022/10/16 00:40:10;;;;;;;5.65;1.38;;;12.70;99.90;;;;;;5089050;28;20418;-64
2022/10/16 00:42:36;;;;;;;4.38;1.20;;;12.70;99.90;;;;;;5088602;28;20048;-65
2022/10/16 00:45:03;;;;;;;3.58;1.38;;;12.70;99.90;;;;;;5088564;28;20078;-64
2022/10/16 00:47:40;;;;;;;8.07;1.45;;;12.70;99.90;;;;;;5088880;28;20036;-66
2022/10/16 00:50:29;;;;;;;5.00;1.23;;;12.70;99.90;;;;;;5089031;28;20079;-65
2022/10/16 00:52:56;;;;;;;5.28;1.05;;;12.70;99.90;;;;;;5069773;28;20036;-65
2022/10/16 00:55:23;;;;;;;4.38;1.33;;;12.70;99.90;;;;;;5089170;28;20414;-65
2022/10/16 00:57:49;;;;;;;4.22;1.55;;;12.70;99.90;;;;;;5087247;28;20044;-66
2022/10/16 01:00:22;;;;;;;5.15;1.30;;;12.80;99.90;;;;;;5089136;28;20140;-65
2022/10/16 01:02:56;;;;;;;5.00;1.40;;;12.80;99.90;;;;;;5095856;28;20081;-66
2022/10/16 01:05:24;;;;;;;6.80;1.42;;;12.80;99.90;;;;;;5092627;28;20051;-66
2022/10/16 01:08:04;;;;;;;6.32;1.55;;;12.70;99.90;;;;;;5091280;28;20044;-66
2022/10/16 01:10:53;;;;;;;5.88;1.35;;;12.80;99.90;;;;;;5089480;28;20035;-67
2022/10/16 01:13:34;;;;;;;3.75;1.38;;;12.70;99.90;;;;;;5090313;28;20482;-65
2022/10/16 01:16:32;;;;;;;6.82;1.83;;;12.80;99.90;;;;;;5089659;28;20055;-66
2022/10/16 01:19:09;;;;;;;4.72;1.50;;;12.80;99.90;;;;;;5084171;28;20105;-67
2022/10/16 01:21:40;;;;;;;6.25;1.65;;;12.80;99.90;;;;;;5096757;28;20561;-66
2022/10/16 01:24:25;;;;;;;4.60;1.30;;;12.80;99.90;;;;;;5090351;28;20101;-66
2022/10/16 01:27:15;;;;;;;4.88;2.00;;;12.80;99.90;;;;;;5095673;28;20546;-67
2022/10/16 01:29:50;;;;;;;4.18;1.73;;;12.80;99.90;;;;;;5096044;28;20043;-66
2022/10/16 01:32:18;;;;;;;3.63;1.27;;;12.70;99.90;;;;;;5080285;28;20406;-66
2022/10/16 01:34:54;;;;;;;3.35;1.40;;;12.80;99.90;;;;;;5091439;28;20482;-67
2022/10/16 01:38:01;;;;;;;4.35;1.17;;;12.80;99.90;;;;;;5090370;28;20069;-66
2022/10/16 01:40:28;;;;;;;4.35;1.20;;;12.80;99.90;;;;;;5015784;28;20059;-67
2022/10/16 01:43:02;;;;;;;6.68;1.67;;;12.80;99.90;;;;;;5028945;28;20045;-67
2022/10/16 01:45:31;;;;;;;4.18;1.30;;;12.80;99.90;;;;;;5013899;28;20475;-66
2022/10/16 01:47:59;;;;;;;2.60;1.30;;;12.80;99.90;;;;;;4995540;28;20037;-65
2022/10/16 01:50:26;;;;;;;4.72;1.23;;;12.80;99.90;;;;;;5013393;28;20063;-66
2022/10/16 01:52:56;;;;;;;3.00;1.92;;;12.80;99.90;;;;;;5013402;28;20416;-65
2022/10/16 01:55:30;;;;;;;5.55;1.48;;;12.80;99.90;;;;;;5013828;28;20058;-65
2022/10/16 01:57:58;;;;;;;3.35;1.50;;;12.80;99.90;;;;;;5011203;28;20057;-65
2022/10/16 02:00:26;;;;;;;4.55;1.38;;;12.80;99.90;;;;;;5012666;28;20599;-66
2022/10/16 02:02:55;;;;;;;5.95;1.58;;;12.80;99.90;;;;;;5010236;28;20129;-67
2022/10/16 02:05:27;;;;;;;4.00;1.60;;;12.80;99.90;;;;;;5012705;28;20061;-66
2022/10/16 02:07:53;;;;;;;4.35;1.75;;;12.80;99.90;;;;;;4997761;28;20037;-65
2022/10/16 02:10:18;;;;;;;4.63;1.40;;;12.80;99.90;;;;;;4997224;28;20115;-65
2022/10/16 02:13:16;;;;;;;6.70;1.65;;;12.80;99.90;;;;;;5013261;28;20049;-64
2022/10/16 02:15:41;;;;;;;4.28;1.38;;;12.80;99.90;;;;;;4918314;29;20095;-66
2022/10/16 02:18:09;;;;;;;4.07;1.38;;;12.80;99.90;;;;;;4993106;28;20542;-66
2022/10/16 02:20:59;;;;;;;6.45;1.67;;;12.80;99.90;;;;;;4994469;28;20504;-64
2022/10/16 02:23:38;;;;;;;3.45;1.40;;;12.80;99.90;;;;;;4993803;28;20042;-66
2022/10/16 02:26:09;;;;;;;5.97;1.88;;;12.80;99.90;;;;;;4991867;28;20046;-66
2022/10/16 02:28:42;;;;;;;3.60;1.38;;;12.80;99.90;;;;;;5010243;28;20030;-66
2022/10/16 02:31:11;;;;;;;8.30;2.47;;;12.80;99.90;;;;;;4993752;28;20124;-66
2022/10/16 02:33:40;;;;;;;5.53;1.80;;;12.80;99.90;;;;;;4994345;28;20045;-65
2022/10/16 02:36:07;;;;;;;2.95;1.30;;;12.80;99.90;;;;;;5000309;28;20284;-67
2022/10/16 02:38:33;;;;;;;7.28;1.70;;;12.80;99.90;;;;;;5009323;28;20428;-67
2022/10/16 02:40:59;;;;;;;4.03;1.48;;;12.80;99.90;;;;;;4999480;28;20050;-65
2022/10/16 02:43:25;;;;;;;4.50;1.60;;;12.80;99.90;;;;;;4978465;28;20077;-66
2022/10/16 02:45:51;;;;;;;3.10;1.50;;;12.80;99.90;;;;;;4997242;28;20631;-66
2022/10/16 02:48:17;;;;;;;5.50;1.40;;;12.80;99.90;;;;;;4978275;28;20054;-65
2022/10/16 02:50:43;;;;;;;5.25;1.52;;;12.80;99.90;;;;;;5014056;28;20650;-64
2022/10/16 02:53:08;;;;;;;5.35;1.40;;;12.80;99.90;;;;;;5054003;28;20052;-65
2022/10/16 02:55:34;;;;;;;5.07;1.77;;;12.80;99.90;;;;;;5092068;28;20047;-64
2022/10/16 02:57:59;;;;;;;4.40;1.48;;;12.80;99.90;;;;;;5092087;28;20044;-66
2022/10/16 03:00:25;;;;;;;4.38;1.60;;;12.80;99.90;;;;;;5091610;28;20442;-65
2022/10/16 03:02:51;;;;;;;2.65;1.20;;;12.80;99.90;;;;;;5094798;28;20118;-66
2022/10/16 03:05:17;;;;;;;4.35;1.48;;;12.80;99.90;;;;;;5094911;28;20055;-65
2022/10/16 03:07:42;;;;;;;4.80;1.50;;;12.80;99.90;;;;;;5093753;28;20058;-66
2022/10/16 03:10:08;;;;;;;3.45;1.45;;;12.80;99.90;;;;;;5090564;28;20466;-66
2022/10/16 03:12:34;;;;;;;5.82;1.50;;;12.80;99.90;;;;;;5085247;28;20115;-66
2022/10/16 03:14:59;;;;;;;4.75;1.67;;;12.80;99.90;;;;;;5093539;28;20070;-66
2022/10/16 03:17:25;;;;;;;5.57;1.40;;;12.80;99.90;;;;;;5079409;28;20040;-66
2022/10/16 03:19:51;;;;;;;6.03;1.80;;;12.80;99.90;;;;;;5091072;28;20119;-66
2022/10/16 03:22:16;;;;;;;3.42;1.50;;;12.80;99.90;;;;;;5089428;28;20040;-67
2022/10/16 03:24:42;;;;;;;3.50;1.50;;;12.80;99.90;;;;;;5097106;28;20482;-65
2022/10/16 03:27:08;;;;;;;4.75;1.42;;;12.80;99.90;;;;;;5097609;28;20122;-64
2022/10/16 03:29:34;;;;;;;2.13;1.27;;;12.80;99.90;;;;;;5091127;28;20031;-65
2022/10/16 03:32:00;;;;;;;7.75;1.45;;;12.80;99.90;;;;;;5090245;28;20131;-65
2022/10/16 03:34:26;;;;;;;3.17;1.40;;;12.80;99.90;;;;;;5088539;28;20040;-65
2022/10/16 03:36:52;;;;;;;3.90;1.38;;;12.80;99.90;;;;;;5099437;28;20039;-66
2022/10/16 03:39:17;;;;;;;5.65;1.52;;;12.80;99.90;;;;;;5094597;28;20087;-64
2022/10/16 03:41:43;;;;;;;2.20;1.30;;;12.80;99.90;;;;;;5087705;28;20098;-66
2022/10/16 03:44:09;;;;;;;3.63;1.70;;;12.80;99.90;;;;;;5088768;28;20054;-66
2022/10/16 03:46:34;;;;;;;1.90;1.42;;;12.80;99.90;;;;;;5089604;28;20382;-66
2022/10/16 03:49:00;;;;;;;6.25;1.70;;;12.70;99.90;;;;;;5091187;28;20074;-66
2022/10/16 03:51:25;;;;;;;3.13;1.63;;;12.70;99.90;;;;;;5072872;28;20052;-65
2022/10/16 03:53:51;;;;;;;3.45;1.60;;;12.70;99.90;;;;;;5081394;28;20040;-67
2022/10/16 03:56:17;;;;;;;2.40;1.73;;;12.70;99.90;;;;;;5088954;28;20024;-66
2022/10/16 03:58:42;;;;;;;4.40;1.80;;;12.70;99.90;;;;;;5083551;28;20047;-65
2022/10/16 04:01:08;;;;;;;3.45;1.90;;;12.60;99.90;;;;;;5089748;28;20032;-65
2022/10/16 04:03:34;;;;;;;6.55;1.90;;;12.70;99.90;;;;;;5089123;28;20522;-65
2022/10/16 04:05:59;;;;;;;4.20;2.00;;;12.60;99.90;;;;;;5072696;28;20414;-66
2022/10/16 04:08:25;;;;;;;3.92;1.83;;;12.60;99.90;;;;;;5096155;28;20119;-66
2022/10/16 04:10:51;;;;;;;4.45;1.92;;;12.60;99.90;;;;;;5086384;28;20063;-64
2022/10/16 04:13:17;;;;;;;3.53;2.10;;;12.60;99.90;;;;;;5092815;28;20093;-65
2022/10/16 04:15:44;;;;;;;5.10;2.08;;;12.60;99.90;;;;;;5089163;28;20040;-66
2022/10/16 04:18:09;;;;;;;3.58;1.95;;;12.50;99.90;;;;;;5089995;28;20051;-65
2022/10/16 04:20:35;;;;;;;4.85;2.00;;;12.50;99.90;;;;;;5076315;28;20051;-66
2022/10/16 04:23:01;;;;;;;3.15;1.90;;;12.50;99.90;;;;;;5087133;28;20544;-66
2022/10/16 04:25:27;;;;;;;3.67;1.90;;;12.50;99.90;;;;;;5088697;28;20027;-66
2022/10/16 04:27:53;;;;;;;8.02;2.38;;;12.50;99.90;;;;;;5105119;28;20040;-64
2022/10/16 04:30:19;;;;;;;4.35;1.95;;;12.40;99.90;;;;;;5089392;28;20044;-67
2022/10/16 04:32:49;;;;;;;3.88;2.22;;;12.40;99.90;;;;;;5087806;28;20043;-65
2022/10/16 04:35:16;;;;;;;6.07;2.05;;;12.40;99.90;;;;;;5089906;28;20107;-66
2022/10/16 04:37:41;;;;;;;7.00;1.90;;;12.40;99.90;;;;;;5092663;28;20047;-66
2022/10/16 04:40:07;;;;;;;2.78;2.20;;;12.40;99.90;;;;;;5093195;28;20044;-66
2022/10/16 04:42:33;;;;;;;4.05;2.30;;;12.40;99.90;;;;;;5070385;28;20465;-64
2022/10/16 04:44:58;;;;;;;7.50;2.30;;;12.40;99.90;;;;;;5069728;28;20068;-67
2022/10/16 04:47:24;;;;;;;3.17;2.05;;;12.40;99.90;;;;;;5071334;28;20079;-65
2022/10/16 04:49:49;;;;;;;4.18;2.20;;;12.40;99.90;;;;;;5074298;28;20424;-65
2022/10/16 04:52:16;;;;;;;4.20;2.00;;;12.40;99.90;;;;;;5070692;28;20036;-67
2022/10/16 04:54:41;;;;;;;3.85;2.15;;;12.40;99.90;;;;;;5060328;28;20083;-66
2022/10/16 04:57:07;;;;;;;6.47;2.45;;;12.40;99.90;;;;;;5061933;28;20083;-64
2022/10/16 04:59:32;;;;;;;4.30;2.38;;;12.40;99.90;;;;;;5072461;28;20044;-65
2022/10/16 05:01:58;;;;;;;3.58;2.00;;;12.40;99.90;;;;;;5093481;28;20036;-66
2022/10/16 05:04:24;;;;;;;4.43;2.53;;;12.40;99.90;;;;;;5072348;28;20406;-66
2022/10/16 05:06:49;;;;;;;3.80;2.50;;;12.40;99.90;;;;;;5069594;28;21504;-65
2022/10/16 05:09:15;;;;;;;4.30;2.20;;;12.40;99.90;;;;;;5072076;28;20036;-65
2022/10/16 05:11:40;;;;;;;6.70;2.30;;;12.40;99.90;;;;;;5069335;28;20032;-64
2022/10/16 05:14:06;;;;;;;6.32;2.42;;;12.40;99.90;;;;;;5055989;28;20055;-65
2022/10/16 05:16:32;;;;;;;4.82;2.28;;;12.40;99.90;;;;;;5071821;28;20399;-65
2022/10/16 05:18:58;;;;;;;5.25;2.20;;;12.40;99.90;;;;;;5075015;28;20040;-65
2022/10/16 05:21:23;;;;;;;4.97;2.45;;;12.30;99.90;;;;;;5074939;28;20494;-65
2022/10/16 05:23:49;;;;;;;4.50;2.53;;;12.40;99.90;;;;;;5071894;28;20036;-65
2022/10/16 05:26:14;;;;;;;3.75;2.30;;;12.40;99.90;;;;;;5073201;28;20475;-66
2022/10/16 05:28:40;;;;;;;5.38;2.10;;;12.40;99.90;;;;;;5074656;28;20097;-65
2022/10/16 05:31:08;;;;;;;4.65;2.38;;;12.40;99.90;;;;;;5054943;28;20039;-65
2022/10/16 05:33:33;;;;;;;5.72;2.88;;;12.40;99.90;;;;;;5053328;28;20123;-66
2022/10/16 05:36:07;;;;;;;2.58;2.30;;;12.40;99.90;;;;;;5077583;28;20139;-64
2022/10/16 05:38:34;;;;;;;6.55;2.28;;;12.40;99.90;;;;;;5057981;28;20072;-66
2022/10/16 05:41:00;;;;;;;5.00;2.38;;;12.30;99.90;;;;;;5092475;28;20058;-66
2022/10/16 05:43:28;;;;;;;2.97;2.45;;;12.40;99.90;;;;;;5073384;28;20036;-66
2022/10/16 05:45:58;;;;;;;4.78;2.17;;;12.30;99.90;;;;;;5076252;28;20040;-66
2022/10/16 05:48:24;;;;;;;4.53;2.10;;;12.30;99.90;;;;;;5075494;28;20089;-64
2022/10/16 05:51:02;;;;;;;4.68;2.53;;;12.30;99.90;;;;;;5057509;28;20043;-64
2022/10/16 05:53:29;;;;;;;4.80;2.42;;;12.30;99.90;;;;;;5103926;28;20055;-66
2022/10/16 05:55:56;;;;;;;3.92;2.30;;;12.30;99.90;;;;;;5074640;28;20540;-65
2022/10/16 05:58:22;;;;;;;4.63;2.10;;;12.20;99.90;;;;;;5077641;28;20061;-67
2022/10/16 06:00:54;;;;;;;2.97;1.98;;;12.30;99.90;;;;;;5076194;28;20051;-65
2022/10/16 06:03:20;;;;;;;6.20;2.08;;;12.30;99.90;;;;;;5074958;28;20056;-65
2022/10/16 06:05:46;;;;;;;4.05;2.00;;;12.30;99.90;;;;;;5068915;28;20067;-66
2022/10/16 06:08:11;;;;;;;2.95;2.22;;;12.20;99.90;;;;;;5071829;28;20044;-67
2022/10/16 06:10:37;;;;;;;6.68;2.53;;;12.30;99.90;;;;;;5071378;28;20044;-68
2022/10/16 06:13:03;;;;;;;5.25;2.20;;;12.30;99.90;;;;;;5070134;28;20071;-66
2022/10/16 06:15:29;;;;;;;4.47;1.83;;;12.30;99.90;;;;;;5062217;28;20050;-67
2022/10/16 06:17:55;;;;;;;3.50;2.00;;;12.30;99.90;;;;;;5067913;28;20032;-67
2022/10/16 06:20:20;;;;;;;4.55;1.90;;;12.40;99.90;;;;;;5070084;28;20040;-65
2022/10/16 06:22:46;;;;;;;2.70;1.63;;;12.40;99.90;;;;;;5057393;28;20052;-65
2022/10/16 06:25:12;;;;;;;3.88;1.73;;;12.30;99.90;;;;;;5074380;28;20123;-66
2022/10/16 06:27:40;;;;;;;6.05;2.33;;;12.40;99.90;;;;;;5060451;28;20406;-66
2022/10/16 06:30:06;;;;;;;4.35;2.00;;;12.40;99.90;;;;;;5074919;28;20032;-67
2022/10/16 06:32:32;;;;;;;4.35;1.83;;;12.40;99.90;;;;;;5069699;28;20497;-67
2022/10/16 06:34:58;;;;;;;4.30;1.67;;;12.50;99.90;;;;;;5071760;28;20052;-66
2022/10/16 06:37:24;;;;;;;2.28;1.98;;;12.40;99.90;;;;;;5073534;28;20043;-66
2022/10/16 06:39:52;;;;;;;5.18;1.80;;;12.50;99.90;;;;;;5065893;28;20048;-66
2022/10/16 06:42:18;;;;;;;3.30;1.90;;;12.50;99.90;;;;;;5068188;28;20055;-66
2022/10/16 06:44:44;;;;;;;4.63;1.75;;;12.60;99.90;;;;;;5072373;28;20036;-66
2022/10/16 06:47:09;;;;;;;3.47;1.60;;;12.50;99.90;;;;;;5062885;28;20032;-65
2022/10/16 06:49:35;;;;;;;3.17;2.00;;;12.50;99.90;;;;;;5065030;28;20044;-66
2022/10/16 06:52:01;;;;;;;3.22;1.75;;;12.60;99.90;;;;;;5072910;28;20075;-65
2022/10/16 06:54:27;;;;;;;5.15;2.08;;;12.60;99.90;;;;;;5070547;28;20040;-67
2022/10/16 06:56:54;;;;;;;4.78;1.75;;;12.60;99.90;;;;;;5070013;28;20402;-65
2022/10/16 06:59:23;;;;;;;4.97;1.80;;;12.60;99.90;;;;;;5067115;28;20044;-65
2022/10/16 07:01:48;;;;;;;3.85;1.80;;;12.70;99.90;;;;;;5070831;28;20042;-67
2022/10/16 07:04:14;;;;;;;3.95;1.70;;;12.70;99.90;;;;;;5073856;28;20048;-66
2022/10/16 07:06:40;;;;;;;2.88;1.30;;;12.70;99.90;;;;;;5072284;28;20044;-66
2022/10/16 07:09:09;;;;;;;5.28;1.63;;;12.80;99.90;;;;;;5069358;28;20036;-67
2022/10/16 07:11:38;;;;;;;4.40;1.50;;;12.80;99.90;;;;;;5071361;28;20138;-68
2022/10/16 07:14:04;;;;;;;3.30;1.33;;;12.80;99.90;;;;;;5072205;28;20040;-65
2022/10/16 07:16:31;;;;;;;5.80;1.60;;;12.90;99.90;;;;;;5067399;28;20040;-66
2022/10/16 07:18:59;;;;;;;4.45;1.48;;;12.90;99.90;;;;;;5069796;28;20135;-67
2022/10/16 07:21:28;;;;;;;3.60;1.77;;;13.00;99.90;;;;;;5072463;28;20097;-67
2022/10/16 07:23:59;;;;;;;4.28;1.35;;;13.00;99.90;;;;;;5072605;28;20040;-64
2022/10/16 07:26:27;;;;;;;3.75;1.40;;;13.00;99.90;;;;;;5071348;28;20039;-67
2022/10/16 07:28:52;;;;;;;4.60;1.30;;;13.00;99.90;;;;;;5073263;28;20425;-65
2022/10/16 07:31:20;;;;;;;3.35;1.20;;;13.10;99.90;;;;;;5053849;28;20028;-66
2022/10/16 07:33:47;;;;;;;4.97;1.15;;;13.10;99.90;;;;;;5069372;28;20086;-66
2022/10/16 07:36:14;;;;;;;2.95;1.10;;;13.10;99.90;;;;;;5091308;28;20044;-66
2022/10/16 07:38:42;;;;;;;3.80;1.10;;;13.10;99.90;;;;;;5070621;28;20062;-68
2022/10/16 07:41:11;;;;;;;5.03;1.02;;;13.10;99.90;;;;;;5073314;28;20047;-66
2022/10/16 07:43:37;;;;;;;3.55;1.00;;;13.20;99.90;;;;;;5067271;28;20040;-65
2022/10/16 07:46:03;;;;;;;4.18;1.33;;;13.20;99.90;;;;;;5072642;28;20082;-67
2022/10/16 07:48:31;;;;;;;4.63;1.08;;;13.20;99.90;;;;;;5069332;28;20039;-66
2022/10/16 07:51:01;;;;;;;3.55;1.00;;;13.30;99.90;;;;;;5072585;28;20043;-64
2022/10/16 07:53:27;;;;;;;5.60;1.05;;;13.30;99.90;;;;;;5068626;28;20036;-67
2022/10/16 07:55:58;;;;;;;3.38;0.90;;;13.30;99.90;;;;;;5056018;28;20040;-68
2022/10/16 07:58:24;;;;;;;2.13;0.70;;;13.40;99.90;;;;;;5071928;28;20098;-66
2022/10/16 08:00:49;;;;;;;2.38;0.90;;;13.40;99.90;;;;;;5088533;28;20063;-65
2022/10/16 08:03:15;;;;;;;3.45;0.77;;;13.50;99.90;;;;;;5072517;28;20043;-65
2022/10/16 08:05:41;;;;;;;1.92;0.70;;;13.50;99.90;;;;;;5068350;28;20086;-67
2022/10/16 08:08:06;;;;;;;3.03;0.77;;;13.60;99.90;;;;;;5072101;28;20097;-67
2022/10/16 08:10:32;;;;;;;3.13;0.85;;;13.60;99.90;;;;;;5067487;28;20498;-65
2022/10/16 08:12:58;;;;;;;4.13;1.00;;;13.60;99.90;;;;;;5072269;28;20031;-67
2022/10/16 08:15:24;;;;;;;4.10;0.95;;;13.70;99.90;;;;;;5067325;28;20051;-65
2022/10/16 08:18:01;;;;;;;5.25;0.80;;;13.70;99.90;;;;;;5072278;28;20479;-66
2022/10/16 08:20:27;;;;;;;3.42;1.30;;;13.70;99.90;;;;;;5070642;28;20043;-65
2022/10/16 08:22:54;;;;;;;3.53;1.30;;;13.70;99.90;;;;;;5072387;28;20059;-68
2022/10/16 08:25:20;;;;;;;2.92;1.20;;;13.80;99.90;;;;;;5052181;28;20047;-66
2022/10/16 08:27:46;;;;;;;3.28;1.40;;;13.80;99.90;;;;;;5089064;28;20111;-67
2022/10/16 08:30:13;;;;;;;4.78;1.55;;;13.90;99.90;;;;;;5065402;28;20131;-66
2022/10/16 08:32:38;;;;;;;5.05;1.65;;;13.90;99.90;;;;;;5072247;28;20036;-65
2022/10/16 08:35:04;;;;;;;4.65;1.65;;;13.90;99.90;;;;;;5069673;28;20093;-66
2022/10/16 08:37:33;;;;;;;6.25;1.88;;;14.00;99.90;;;;;;5068359;28;20043;-66
2022/10/16 08:39:59;;;;;;;3.78;1.63;;;14.10;99.90;;;;;;5072389;28;20545;-65
2022/10/16 08:42:46;;;;;;;4.78;1.90;;;14.30;99.90;;;;;;5070992;28;20044;-66
2022/10/16 08:45:25;;;;;;;4.00;2.20;;;14.40;99.90;;;;;;5071908;28;20052;-65
2022/10/16 08:48:15;;;;;;;4.30;1.98;;;14.60;99.90;;;;;;5066467;28;20058;-65
2022/10/16 08:50:41;;;;;;;7.60;2.15;;;14.70;99.90;;;;;;5069183;28;20052;-67
2022/10/16 08:53:13;;;;;;;4.50;1.40;;;14.80;99.90;;;;;;5071552;28;20432;-65
2022/10/16 08:55:52;;;;;;;6.65;1.90;;;14.90;99.90;;;;;;5067276;28;20390;-66
2022/10/16 08:58:26;;;;;;;4.82;1.70;;;15.00;99.90;;;;;;5057168;28;20045;-66
2022/10/16 09:01:00;;;;;;;3.55;1.75;;;15.00;99.90;;;;;;5070295;28;20080;-66
2022/10/16 09:03:48;;;;;;;4.40;1.85;;;15.10;99.90;;;;;;5063230;28;20052;-66
2022/10/16 09:06:32;;;;;;;5.85;1.60;;;15.30;99.90;;;;;;5059373;28;20044;-67
2022/10/16 09:09:14;;;;;;;8.25;1.80;;;15.30;99.90;;;;;;5061142;28;20119;-66
2022/10/16 09:12:03;;;;;;;5.10;1.60;;;15.50;99.90;;;;;;5061189;28;20469;-67
2022/10/16 09:14:30;;;;;;;5.28;1.80;;;15.60;99.90;;;;;;5068763;28;20044;-67
2022/10/16 09:17:32;;;;;;;7.07;1.35;;;15.60;99.90;;;;;;5071614;28;20051;-67
2022/10/16 09:20:24;;;;;;;3.27;1.20;;;15.70;99.90;;;;;;5066943;28;20384;-67
2022/10/16 09:22:56;;;;;;;8.48;1.90;;;15.90;99.90;;;;;;5087718;28;20089;-67
2022/10/16 09:25:22;;;;;;;5.00;1.50;;;15.80;99.90;;;;;;5075001;28;20060;-67
2022/10/16 09:27:52;;;;;;;9.20;2.08;;;15.80;99.90;;;;;;5070654;28;20055;-66
2022/10/16 09:30:20;;;;;;;4.90;1.45;;;15.90;99.90;;;;;;5067208;28;20372;-66
2022/10/16 09:32:49;;;;;;;4.93;1.42;;;16.00;99.90;;;;;;5074453;28;20039;-68
2022/10/16 09:35:22;;;;;;;5.30;1.60;;;16.00;99.90;;;;;;5073772;28;20052;-67
2022/10/16 09:37:50;;;;;;;6.30;1.90;;;16.10;99.90;;;;;;5075248;28;20036;-65
2022/10/16 09:40:35;;;;;;;5.82;1.70;;;16.40;99.90;;;;;;5072210;28;20056;-66
2022/10/16 09:43:12;;;;;;;7.15;1.63;;;16.40;99.90;;;;;;5073896;28;20090;-67
2022/10/16 09:45:38;;;;;;;4.72;1.52;;;16.50;99.90;;;;;;5075000;28;20518;-67
2022/10/16 09:48:12;;;;;;;6.65;1.40;;;16.70;99.90;;;;;;5073273;28;20086;-68
2022/10/16 09:50:38;;;;;;;6.57;1.63;;;16.80;99.90;;;;;;5072502;28;20036;-66
2022/10/16 09:53:14;;;;;;;8.95;1.73;;;16.90;99.90;;;;;;5074790;28;20401;-66
2022/10/16 09:55:51;;;;;;;7.30;1.50;;;16.80;99.90;;;;;;5073880;28;20087;-65
2022/10/16 09:58:17;;;;;;;7.55;1.42;;;16.70;99.90;;;;;;5074086;28;20048;-67
2022/10/16 10:00:50;;;;;;;6.75;1.45;;;16.90;99.90;;;;;;5090603;28;20048;-66
2022/10/16 10:03:28;;;;;;;6.55;1.58;;;17.10;99.90;;;;;;5074885;28;20122;-66
2022/10/16 10:05:54;;;;;;;6.10;1.73;;;17.30;99.90;;;;;;5056869;28;20043;-66
2022/10/16 10:08:19;;;;;;;6.10;1.50;;;17.60;99.90;;;;;;5074779;28;20479;-67
2022/10/16 10:10:48;;;;;;;8.90;1.40;;;17.90;99.90;;;;;;5073491;28;20505;-67
2022/10/16 10:13:20;;;;;;;7.88;1.30;;;17.70;99.90;;;;;;5070138;28;20079;-65
2022/10/16 10:15:45;;;;;;;8.20;2.00;;;17.80;99.90;;;;;;5074627;28;20071;-65
2022/10/16 10:18:21;;;;;;;10.35;1.60;;;17.60;99.90;;;;;;5072613;28;20387;-66
2022/10/16 10:20:58;;;;;;;6.40;1.25;;;17.50;99.90;;;;;;5074628;28;20036;-67
2022/10/16 10:23:26;;;;;;;6.68;1.30;;;17.30;99.90;;;;;;5069254;28;20040;-66
2022/10/16 10:26:07;;;;;;;8.05;1.52;;;17.30;99.90;;;;;;5074381;28;20097;-66
2022/10/16 10:28:46;;;;;;;10.23;1.90;;;17.30;99.90;;;;;;5073130;28;20032;-66
2022/10/16 10:31:23;;;;;;;9.68;1.88;;;17.40;99.90;;;;;;5071332;28;20050;-66
2022/10/16 10:33:57;;;;;;;8.73;1.77;;;17.60;99.90;;;;;;5072087;28;20044;-68
2022/10/16 10:36:41;;;;;;;9.15;1.80;;;17.70;99.90;;;;;;5092951;28;20070;-68
2022/10/16 10:39:32;;;;;;;8.15;1.77;;;17.90;99.90;;;;;;5073172;28;20056;-67
2022/10/16 10:42:30;;;;;;;7.80;1.90;;;18.00;99.90;;;;;;5074357;28;20383;-67
2022/10/16 10:45:08;;;;;;;7.07;1.95;;;18.10;99.90;;;;;;5052988;28;20048;-66
2022/10/16 10:47:41;;;;;;;8.40;1.90;;;18.00;99.90;;;;;;5090856;28;20115;-68
2022/10/16 10:50:45;;;;;;;8.07;1.98;;;18.00;99.90;;;;;;5073662;28;20052;-65
2022/10/16 10:53:33;;;;;;;4.78;1.33;;;18.10;99.90;;;;;;5090363;28;20115;-66
2022/10/16 10:56:05;;;;;;;10.48;2.20;;;18.30;99.90;;;;;;5077194;28;20048;-65
2022/10/16 10:59:06;;;;;;;12.05;2.30;;;18.00;99.90;;;;;;5090759;28;20039;-67
2022/10/16 11:01:55;;;;;;;10.48;1.70;;;17.80;99.90;;;;;;5087154;28;20149;-66
2022/10/16 11:04:53;;;;;;;8.27;1.65;;;17.40;99.90;;;;;;5091039;28;20036;-67
2022/10/16 11:07:28;;;;;;;7.57;1.45;;;17.20;99.90;;;;;;5091147;28;20032;-66
2022/10/16 11:10:01;;;;;;;6.70;1.40;;;17.00;99.90;;;;;;5086184;28;20036;-66
2022/10/16 11:12:39;;;;;;;15.93;2.55;;;16.90;99.90;;;;;;5089899;28;20090;-66
2022/10/16 11:15:15;;;;;;;6.63;2.28;;;16.90;99.90;;;;;;5071324;28;20055;-68
2022/10/16 11:17:50;;;;;;;10.15;1.58;;;17.10;99.90;;;;;;5089556;28;20089;-67
2022/10/16 11:20:19;;;;;;;9.07;1.65;;;17.30;99.90;;;;;;5090123;28;20128;-66
2022/10/16 11:22:52;;;;;;;7.43;1.77;;;17.60;99.90;;;;;;5091422;28;20085;-67
2022/10/16 11:25:29;;;;;;;9.75;1.67;;;17.80;99.90;;;;;;5090103;28;20403;-66
2022/10/16 11:28:03;;;;;;;12.60;2.30;;;17.60;99.90;;;;;;5089835;28;20035;-66
2022/10/16 11:30:32;;;;;;;8.32;1.73;;;17.50;99.90;;;;;;5090404;28;20043;-67
2022/10/16 11:32:58;;;;;;;6.95;1.40;;;17.50;99.90;;;;;;5089039;28;20571;-65
2022/10/16 11:35:48;;;;;;;11.75;2.40;;;17.60;99.90;;;;;;5090330;28;20119;-68
2022/10/16 11:38:26;;;;;;;9.82;1.80;;;17.50;99.90;;;;;;5085854;28;20071;-67
2022/10/16 11:40:54;;;;;;;8.85;1.65;;;17.50;99.90;;;;;;5089149;28;20056;-66
2022/10/16 11:43:33;;;;;;;12.40;1.55;;;17.50;99.90;;;;;;5088516;28;20051;-66
2022/10/16 11:46:04;;;;;;;9.23;1.52;;;17.30;99.90;;;;;;5086992;28;20080;-66
2022/10/16 11:48:45;;;;;;;8.55;1.40;;;17.30;99.90;;;;;;5087537;28;20425;-66
2022/10/16 11:51:23;;;;;;;10.15;2.50;;;17.20;99.90;;;;;;5082246;28;20792;-66
2022/10/16 11:54:24;;;;;;;7.90;1.77;;;17.10;99.90;;;;;;5069127;28;20032;-69
2022/10/16 11:56:54;;;;;;;9.88;1.60;;;16.90;99.90;;;;;;5069842;28;20063;-67
2022/10/16 11:59:31;;;;;;;7.90;1.70;;;16.80;99.90;;;;;;5085699;28;20051;-67
2022/10/16 12:02:20;;;;;;;9.55;1.70;;;16.60;99.90;;;;;;5086266;28;20538;-68
2022/10/16 12:04:58;;;;;;;6.60;1.30;;;16.50;99.90;;;;;;5082717;28;20048;-67
2022/10/16 12:07:35;;;;;;;12.55;1.73;;;16.30;99.90;;;;;;5072056;28;20060;-66
2022/10/16 12:10:20;;;;;;;7.00;1.38;;;16.20;99.90;;;;;;5086666;28;20044;-67
2022/10/16 12:12:46;;;;;;;9.63;1.58;;;16.20;99.90;;;;;;5086258;28;20124;-64
2022/10/16 12:15:27;;;;;;;10.57;1.90;;;16.20;99.90;;;;;;5086296;28;20611;-65
2022/10/16 12:17:54;;;;;;;11.75;1.52;;;16.20;99.90;;;;;;5087102;28;20040;-67
2022/10/16 12:20:27;;;;;;;7.97;1.60;;;16.30;99.90;;;;;;5071191;28;20048;-67
2022/10/16 12:23:02;;;;;;;10.98;1.50;;;16.40;99.90;;;;;;5072262;28;20039;-67
2022/10/16 12:25:34;;;;;;;6.80;1.48;;;16.50;99.90;;;;;;5072138;28;20042;-66
2022/10/16 12:28:19;;;;;;;8.60;1.75;;;16.60;99.90;;;;;;5063921;28;20052;-66
2022/10/16 12:30:53;;;;;;;6.90;1.88;;;16.60;99.90;;;;;;5087641;28;20127;-67
2022/10/16 12:33:31;;;;;;;6.70;1.50;;;16.80;99.90;;;;;;5089145;28;20035;-65
2022/10/16 12:35:59;;;;;;;8.23;1.30;;;17.00;99.90;;;;;;5087469;28;20040;-67
2022/10/16 12:38:36;;;;;;;7.75;1.70;;;17.40;99.90;;;;;;5088994;28;20094;-68
2022/10/16 12:41:06;;;;;;;6.25;1.50;;;17.50;99.90;;;;;;5086746;28;20051;-66
2022/10/16 12:43:37;;;;;;;7.72;1.42;;;17.50;99.90;;;;;;5089448;28;20101;-67
2022/10/16 12:46:43;;;;;;;10.35;1.73;;;17.50;99.90;;;;;;5088652;28;20048;-65
2022/10/16 12:49:12;;;;;;;10.43;1.58;;;17.60;99.90;;;;;;5070218;28;20490;-66
2022/10/16 12:51:38;;;;;;;10.98;1.52;;;17.80;99.90;;;;;;5088122;28;20051;-68
2022/10/16 12:54:14;;;;;;;7.10;1.50;;;17.90;99.90;;;;;;5089077;28;20126;-66
2022/10/16 12:56:50;;;;;;;11.75;2.05;;;17.70;99.90;;;;;;5092270;28;20051;-67
2022/10/16 12:59:50;;;;;;;8.10;1.63;;;17.50;99.90;;;;;;5075107;28;20035;-66
2022/10/16 13:02:15;;;;;;;12.75;1.67;;;17.20;99.90;;;;;;5089200;28;20053;-67
2022/10/16 13:04:47;;;;;;;6.95;1.40;;;17.10;99.90;;;;;;5090503;28;20102;-67